createdAt,value
2022-09-22T00:01:02.802Z,101586.03
2022-09-22T00:03:31.105Z,101583.31
2022-09-22T00:06:03.139Z,101577.94
2022-09-22T00:08:35.186Z,101574.38
2022-09-22T00:11:16.759Z,101580.50
2022-09-22T00:13:45.809Z,101575.16
2022-09-22T00:16:14.063Z,101572.47
2022-09-22T00:18:40.728Z,101575.97
2022-09-22T00:21:09.362Z,101572.38
2022-09-22T00:23:37.017Z,101567.88
2022-09-22T00:26:11.975Z,101579.13
2022-09-22T00:28:40.122Z,101573.75
2022-09-22T00:31:09.213Z,101573.72
2022-09-22T00:33:36.142Z,101572.69
2022-09-22T00:36:03.844Z,101571.75
2022-09-22T00:38:31.216Z,101568.16
2022-09-22T00:40:57.917Z,101566.31
2022-09-22T00:43:27.134Z,101568.81
2022-09-22T00:46:12.615Z,101567.00
2022-09-22T00:48:45.173Z,101565.13
2022-09-22T00:51:16.631Z,101561.53
2022-09-22T00:53:43.542Z,101568.53
2022-09-22T00:56:15.931Z,101578.06
2022-09-22T00:58:48.307Z,101570.00
2022-09-22T01:01:15.927Z,101567.38
2022-09-22T01:03:43.890Z,101567.22
2022-09-22T01:06:16.101Z,101559.19
2022-09-22T01:08:44.707Z,101565.25
2022-09-22T01:11:13.534Z,101568.75
2022-09-22T01:13:55.545Z,101565.16
2022-09-22T01:16:46.209Z,101572.16
2022-09-22T01:19:40.716Z,101558.81
2022-09-22T01:22:33.940Z,101562.25
2022-09-22T01:25:09.244Z,101561.31
2022-09-22T01:28:00.506Z,101558.63
2022-09-22T01:30:42.600Z,101556.81
2022-09-22T01:33:36.629Z,101561.97
2022-09-22T01:36:13.656Z,101564.53
2022-09-22T01:38:48.686Z,101561.81
2022-09-22T01:41:21.542Z,101559.09
2022-09-22T01:43:54.958Z,101561.66
2022-09-22T01:46:29.302Z,101556.34
2022-09-22T01:49:00.560Z,101562.44
2022-09-22T01:51:39.064Z,101553.56
2022-09-22T01:54:12.869Z,101545.59
2022-09-22T01:56:42.189Z,101552.63
2022-09-22T01:59:11.938Z,101545.56
2022-09-22T02:01:46.106Z,101554.31
2022-09-22T02:04:22.363Z,101550.72
2022-09-22T02:07:01.006Z,101554.16
2022-09-22T02:09:31.634Z,101552.38
2022-09-22T02:11:59.045Z,101547.13
2022-09-22T02:14:26.124Z,101552.38
2022-09-22T02:16:53.772Z,101547.13
2022-09-22T02:19:24.203Z,101545.31
2022-09-22T02:21:51.272Z,101536.59
2022-09-22T02:24:34.545Z,101537.50
2022-09-22T02:27:06.419Z,101536.63
2022-09-22T02:29:41.053Z,101534.91
2022-09-22T02:32:13.621Z,101535.94
2022-09-22T02:34:40.541Z,101533.34
2022-09-22T02:37:50.983Z,101536.09
2022-09-22T02:40:32.231Z,101533.66
2022-09-22T02:43:06.593Z,101535.47
2022-09-22T02:45:50.322Z,101534.72
2022-09-22T02:48:31.000Z,101528.66
2022-09-22T02:50:57.764Z,101530.56
2022-09-22T02:53:24.230Z,101520.16
2022-09-22T02:55:50.839Z,101523.75
2022-09-22T02:58:17.686Z,101522.84
2022-09-22T03:00:45.303Z,101527.16
2022-09-22T03:03:12.425Z,101512.97
2022-09-22T03:05:39.103Z,101522.50
2022-09-22T03:08:05.814Z,101516.22
2022-09-22T03:10:32.769Z,101519.56
2022-09-22T03:13:18.818Z,101518.44
2022-09-22T03:15:46.459Z,101506.00
2022-09-22T03:18:13.881Z,101503.16
2022-09-22T03:20:40.666Z,101504.88
2022-09-22T03:23:07.545Z,101502.03
2022-09-22T03:25:34.085Z,101504.50
2022-09-22T03:28:00.898Z,101507.00
2022-09-22T03:30:27.459Z,101499.81
2022-09-22T03:32:53.953Z,101504.06
2022-09-22T03:35:20.513Z,101496.13
2022-09-22T03:37:46.995Z,101493.38
2022-09-22T03:40:14.097Z,101498.53
2022-09-22T03:42:40.567Z,101502.81
2022-09-22T03:45:07.516Z,101497.41
2022-09-22T03:47:34.339Z,101489.41
2022-09-22T03:50:00.985Z,101498.97
2022-09-22T03:52:27.433Z,101498.91
2022-09-22T03:54:54.501Z,101502.31
2022-09-22T03:57:21.206Z,101494.31
2022-09-22T03:59:47.686Z,101491.56
2022-09-22T04:02:14.299Z,101492.25
2022-09-22T04:04:40.951Z,101495.72
2022-09-22T04:07:07.732Z,101496.50
2022-09-22T04:09:34.801Z,101485.94
2022-09-22T04:12:01.596Z,101485.78
2022-09-22T04:14:28.180Z,101486.63
2022-09-22T04:16:54.731Z,101490.94
2022-09-22T04:19:22.038Z,101485.56
2022-09-22T04:21:51.975Z,101481.09
2022-09-22T04:24:21.231Z,101488.03
2022-09-22T04:27:02.198Z,101481.00
2022-09-22T04:29:34.198Z,101477.41
2022-09-22T04:32:00.852Z,101475.53
2022-09-22T04:34:27.392Z,101480.72
2022-09-22T04:36:53.929Z,101478.03
2022-09-22T04:39:23.782Z,101480.63
2022-09-22T04:41:50.947Z,101477.03
2022-09-22T04:44:17.440Z,101478.69
2022-09-22T04:46:46.103Z,101480.34
2022-09-22T04:49:16.872Z,101483.81
2022-09-22T04:51:43.377Z,101480.22
2022-09-22T04:54:10.043Z,101479.31
2022-09-22T04:56:36.561Z,101480.13
2022-09-22T04:59:03.215Z,101483.56
2022-09-22T05:01:29.808Z,101482.59
2022-09-22T05:03:56.356Z,101480.88
2022-09-22T05:06:22.808Z,101480.81
2022-09-22T05:08:49.309Z,101479.00
2022-09-22T05:11:15.744Z,101487.78
2022-09-22T05:13:42.233Z,101488.72
2022-09-22T05:16:08.796Z,101486.13
2022-09-22T05:18:35.561Z,101492.31
2022-09-22T05:21:02.199Z,101488.75
2022-09-22T05:23:28.940Z,101494.94
2022-09-22T05:25:55.441Z,101490.53
2022-09-22T05:28:24.305Z,101498.53
2022-09-22T05:30:51.481Z,101496.06
2022-09-22T05:33:18.378Z,101498.06
2022-09-22T05:35:45.425Z,101501.84
2022-09-22T05:38:11.895Z,101505.63
2022-09-22T05:40:38.504Z,101499.72
2022-09-22T05:43:05.188Z,101504.41
2022-09-22T05:45:31.838Z,101498.50
2022-09-22T05:47:58.417Z,101505.81
2022-09-22T05:50:24.918Z,101506.06
2022-09-22T05:52:51.820Z,101500.97
2022-09-22T05:55:18.499Z,101501.97
2022-09-22T05:57:45.078Z,101506.53
2022-09-22T06:00:13.304Z,101497.94
2022-09-22T06:02:40.108Z,101505.88
2022-09-22T06:05:06.995Z,101506.94
2022-09-22T06:07:33.737Z,101502.66
2022-09-22T06:10:00.300Z,101503.72
2022-09-22T06:12:26.799Z,101506.44
2022-09-22T06:14:53.334Z,101501.31
2022-09-22T06:17:19.845Z,101503.25
2022-09-22T06:19:50.114Z,101505.09
2022-09-22T06:22:17.940Z,101519.31
2022-09-22T06:24:44.669Z,101506.28
2022-09-22T06:27:11.155Z,101509.09
2022-09-22T06:29:38.003Z,101505.69
2022-09-22T06:32:08.125Z,101502.19
2022-09-22T06:34:38.037Z,101504.09
2022-09-22T06:37:08.386Z,101509.47
2022-09-22T06:39:37.702Z,101515.91
2022-09-22T06:42:05.240Z,101506.38
2022-09-22T06:44:33.019Z,101504.06
2022-09-22T06:47:05.208Z,101510.47
2022-09-22T06:49:31.673Z,101510.78
2022-09-22T06:51:58.571Z,101506.59
2022-09-22T06:54:25.742Z,101506.84
2022-09-22T06:56:52.712Z,101503.50
2022-09-22T06:59:19.744Z,101505.53
2022-09-22T07:01:46.709Z,101500.44
2022-09-22T07:04:14.155Z,101503.25
2022-09-22T07:06:41.376Z,101507.91
2022-09-22T07:09:09.219Z,101503.00
2022-09-22T07:11:39.887Z,101505.97
2022-09-22T07:14:08.601Z,101513.25
2022-09-22T07:16:36.300Z,101514.41
2022-09-22T07:19:04.845Z,101514.63
2022-09-22T07:21:38.273Z,101510.56
2022-09-22T07:24:08.131Z,101516.09
2022-09-22T07:26:37.533Z,101518.13
2022-09-22T07:29:07.735Z,101517.56
2022-09-22T07:31:36.478Z,101509.03
2022-09-22T07:34:03.767Z,101520.78
2022-09-22T07:36:32.429Z,101528.16
2022-09-22T07:39:05.697Z,101513.44
2022-09-22T07:41:41.324Z,101516.50
2022-09-22T07:44:31.370Z,101514.22
2022-09-22T07:46:58.452Z,101513.69
2022-09-22T07:49:27.060Z,101513.16
2022-09-22T07:51:57.227Z,101514.50
2022-09-22T07:54:25.768Z,101513.22
2022-09-22T07:56:56.033Z,101515.56
2022-09-22T07:59:22.505Z,101523.22
2022-09-22T08:01:50.740Z,101515.75
2022-09-22T08:04:23.006Z,101518.91
2022-09-22T08:06:52.248Z,101509.59
2022-09-22T08:09:19.268Z,101510.84
2022-09-22T08:11:48.705Z,101508.56
2022-09-22T08:14:17.384Z,101519.53
2022-09-22T08:16:44.376Z,101507.44
2022-09-22T08:19:12.560Z,101514.84
2022-09-22T08:21:48.452Z,101510.75
2022-09-22T08:24:22.531Z,101509.19
2022-09-22T08:26:50.782Z,101503.09
2022-09-22T08:29:17.507Z,101502.25
2022-09-22T08:31:47.404Z,101498.81
2022-09-22T08:34:16.363Z,101504.19
2022-09-22T08:36:49.240Z,101511.38
2022-09-22T08:39:19.226Z,101506.13
2022-09-22T08:41:48.665Z,101500.00
2022-09-22T08:44:22.938Z,101506.28
2022-09-22T08:46:51.978Z,101502.75
2022-09-22T08:49:44.591Z,101506.28
2022-09-22T08:52:35.896Z,101506.34
2022-09-22T08:55:03.418Z,101509.03
2022-09-22T08:57:56.187Z,101509.09
2022-09-22T09:00:24.859Z,101504.75
2022-09-22T09:03:26.265Z,101506.63
2022-09-22T09:06:05.123Z,101513.81
2022-09-22T09:09:05.287Z,101504.13
2022-09-22T09:11:35.080Z,101508.59
2022-09-22T09:14:22.121Z,101508.66
2022-09-22T09:16:54.776Z,101514.06
2022-09-22T09:19:24.253Z,101504.38
2022-09-22T09:21:52.966Z,101507.94
2022-09-22T09:27:20.141Z,101504.47
2022-09-22T09:30:17.831Z,101509.84
2022-09-22T09:32:50.394Z,101505.44
2022-09-22T09:35:24.693Z,101505.44
2022-09-22T09:37:53.692Z,101499.25
2022-09-22T09:40:22.110Z,101497.50
2022-09-22T09:43:04.141Z,101502.00
2022-09-22T09:45:44.639Z,101497.59
2022-09-22T09:48:27.564Z,101500.28
2022-09-22T09:50:54.636Z,101495.91
2022-09-22T09:53:30.665Z,101491.53
2022-09-22T09:55:57.887Z,101494.28
2022-09-22T09:58:42.996Z,101492.53
2022-09-22T10:01:13.699Z,101485.56
2022-09-22T10:03:54.750Z,101498.09
2022-09-22T10:06:26.376Z,101485.72
2022-09-22T10:08:53.207Z,101480.44
2022-09-22T10:11:31.168Z,101484.94
2022-09-22T10:13:58.665Z,101478.75
2022-09-22T10:16:26.025Z,101481.47
2022-09-22T10:19:27.449Z,101481.53
2022-09-22T10:22:27.482Z,101467.34
2022-09-22T10:25:00.079Z,101470.97
2022-09-22T10:27:28.843Z,101472.84
2022-09-22T10:30:13.480Z,101469.34
2022-09-22T10:32:40.424Z,101464.13
2022-09-22T10:35:28.751Z,101467.84
2022-09-22T10:38:07.997Z,101465.28
2022-09-22T10:40:39.209Z,101467.13
2022-09-22T10:43:13.144Z,101462.72
2022-09-22T10:45:54.085Z,101457.44
2022-09-22T10:48:39.148Z,101454.03
2022-09-22T10:51:16.093Z,101444.28
2022-09-22T10:54:17.676Z,101451.53
2022-09-22T10:56:50.101Z,101443.63
2022-09-22T10:59:16.525Z,101442.78
2022-09-22T11:01:57.377Z,101437.50
2022-09-22T11:05:02.541Z,101437.59
2022-09-22T11:08:08.539Z,101434.97
2022-09-22T11:11:11.466Z,101435.00
2022-09-22T11:14:07.412Z,101431.44
2022-09-22T11:16:57.054Z,101429.66
2022-09-22T11:19:43.226Z,101418.06
2022-09-22T11:22:57.768Z,101418.09
2022-09-22T11:25:36.566Z,101419.00
2022-09-22T11:28:15.243Z,101415.41
2022-09-22T11:30:49.686Z,101416.34
2022-09-22T11:33:54.281Z,101416.34
2022-09-22T11:36:51.603Z,101401.19
2022-09-22T11:39:43.632Z,101400.28
2022-09-22T11:42:25.226Z,101403.84
2022-09-22T11:44:58.103Z,101402.97
2022-09-22T11:47:47.398Z,101399.38
2022-09-22T11:50:56.783Z,101396.69
2022-09-22T11:53:56.885Z,101397.59
2022-09-22T11:56:38.933Z,101388.69
2022-09-22T11:59:29.991Z,101389.56
2022-09-22T12:02:00.133Z,101378.00
2022-09-22T12:04:52.667Z,101372.66
2022-09-22T12:07:34.001Z,101374.44
2022-09-22T12:10:05.346Z,101381.50
2022-09-22T12:12:33.182Z,101379.72
2022-09-22T12:15:15.962Z,101375.22
2022-09-22T12:18:14.983Z,101368.88
2022-09-22T12:20:55.215Z,101374.19
2022-09-22T12:23:40.375Z,101377.72
2022-09-22T12:26:12.193Z,101375.06
2022-09-22T12:28:44.023Z,101368.88
2022-09-22T12:31:15.158Z,101367.09
2022-09-22T12:33:46.723Z,101366.22
2022-09-22T12:36:14.344Z,101363.53
2022-09-22T12:38:41.439Z,101363.56
2022-09-22T12:41:08.378Z,101357.31
2022-09-22T12:43:36.716Z,101360.81
2022-09-22T12:46:15.735Z,101347.34
2022-09-22T12:48:45.990Z,101349.94
2022-09-22T12:51:26.206Z,101347.09
2022-09-22T12:54:21.838Z,101338.91
2022-09-22T12:57:01.038Z,101347.72
2022-09-22T12:59:36.511Z,101349.34
2022-09-22T13:02:43.003Z,101345.69
2022-09-22T13:05:09.423Z,101341.16
2022-09-22T13:07:40.760Z,101335.78
2022-09-22T13:10:22.912Z,101335.81
2022-09-22T13:13:02.007Z,101331.44
2022-09-22T13:15:31.990Z,101328.88
2022-09-22T13:17:58.894Z,101320.94
2022-09-22T13:20:28.124Z,101324.63
2022-09-22T13:22:56.605Z,101320.19
2022-09-22T13:25:28.478Z,101319.38
2022-09-22T13:28:16.245Z,101318.50
2022-09-22T13:30:44.549Z,101316.69
2022-09-22T13:33:28.892Z,101315.75
2022-09-22T13:36:01.848Z,101313.94
2022-09-22T13:38:29.405Z,101315.69
2022-09-22T13:40:55.889Z,101302.16
2022-09-22T13:43:33.085Z,101301.16
2022-09-22T13:46:01.605Z,101301.09
2022-09-22T13:48:36.660Z,101301.97
2022-09-22T13:51:09.127Z,101297.50
2022-09-22T13:53:37.272Z,101305.50
2022-09-22T13:56:04.329Z,101297.41
2022-09-22T13:58:38.399Z,101299.19
2022-09-22T14:01:14.727Z,101292.91
2022-09-22T14:03:42.125Z,101293.78
2022-09-22T14:06:13.742Z,101291.13
2022-09-22T14:08:42.919Z,101284.88
2022-09-22T14:11:18.863Z,101284.81
2022-09-22T14:13:54.452Z,101285.69
2022-09-22T14:16:48.336Z,101276.75
2022-09-22T14:19:23.555Z,101275.81
2022-09-22T14:21:56.007Z,101269.56
2022-09-22T14:24:23.525Z,101274.91
2022-09-22T14:26:53.893Z,101280.25
2022-09-22T14:29:27.995Z,101275.75
2022-09-22T14:32:45.755Z,101281.13
2022-09-22T14:35:33.122Z,101275.78
2022-09-22T14:38:11.268Z,101277.63
2022-09-22T14:40:55.723Z,101271.41
2022-09-22T14:43:31.225Z,101272.31
2022-09-22T14:46:00.582Z,101271.44
2022-09-22T14:48:33.018Z,101267.81
2022-09-22T14:51:08.183Z,101268.66
2022-09-22T14:53:43.936Z,101263.28
2022-09-22T14:56:17.554Z,101264.22
2022-09-22T14:58:49.175Z,101265.91
2022-09-22T15:01:42.103Z,101267.63
2022-09-22T15:04:23.175Z,101264.97
2022-09-22T15:06:58.894Z,101255.13
2022-09-22T15:09:33.501Z,101254.25
2022-09-22T15:12:02.816Z,101250.78
2022-09-22T15:14:42.239Z,101248.13
2022-09-22T15:18:01.948Z,101247.34
2022-09-22T15:20:58.235Z,101244.72
2022-09-22T15:23:44.735Z,101243.94
2022-09-22T15:26:21.680Z,101249.41
2022-09-22T15:28:52.729Z,101245.03
2022-09-22T15:31:26.755Z,101242.41
2022-09-22T15:33:54.543Z,101234.41
2022-09-22T15:36:22.708Z,101246.94
2022-09-22T15:38:49.579Z,101241.63
2022-09-22T15:41:17.230Z,101243.44
2022-09-22T15:43:44.252Z,101238.13
2022-09-22T15:46:28.065Z,101227.47
2022-09-22T15:49:00.068Z,101231.03
2022-09-22T15:51:27.413Z,101225.69
2022-09-22T15:53:54.139Z,101228.44
2022-09-22T15:56:23.309Z,101232.91
2022-09-22T15:58:52.267Z,101222.22
2022-09-22T16:01:18.761Z,101227.59
2022-09-22T16:03:45.396Z,101221.34
2022-09-22T16:06:16.039Z,101222.25
2022-09-22T16:08:46.126Z,101224.91
2022-09-22T16:11:16.252Z,101213.22
2022-09-22T16:13:42.993Z,101220.06
2022-09-22T16:16:10.690Z,101223.16
2022-09-22T16:18:39.621Z,101217.38
2022-09-22T16:21:07.868Z,101211.34
2022-09-22T16:23:34.431Z,101209.81
2022-09-22T16:26:00.885Z,101203.75
2022-09-22T16:28:27.306Z,101202.28
2022-09-22T16:30:53.781Z,101207.00
2022-09-22T16:33:20.965Z,101200.13
2022-09-22T16:35:47.876Z,101206.09
2022-09-22T16:38:14.389Z,101201.56
2022-09-22T16:40:40.903Z,101198.94
2022-09-22T16:43:08.890Z,101201.09
2022-09-22T16:45:54.000Z,101205.56
2022-09-22T16:48:20.512Z,101205.47
2022-09-22T16:50:47.221Z,101200.69
2022-09-22T16:53:14.326Z,101207.53
2022-09-22T16:55:48.195Z,101202.56
2022-09-22T16:58:14.742Z,101209.28
2022-09-22T17:00:41.338Z,101208.78
2022-09-22T17:03:08.315Z,101204.63
2022-09-22T17:05:35.197Z,101203.13
2022-09-22T17:08:06.486Z,101198.94
2022-09-22T17:10:35.848Z,101204.50
2022-09-22T17:13:04.842Z,101202.88
2022-09-22T17:15:36.019Z,101201.28
2022-09-22T17:18:04.107Z,101196.97
2022-09-22T17:20:30.749Z,101197.91
2022-09-22T17:22:57.682Z,101204.25
2022-09-22T17:25:28.006Z,101191.84
2022-09-22T17:27:54.851Z,101194.56
2022-09-22T17:30:21.963Z,101191.91
2022-09-22T17:32:48.921Z,101192.81
2022-09-22T17:35:15.473Z,101199.03
2022-09-22T17:37:42.083Z,101198.13
2022-09-22T17:40:10.423Z,101192.78
2022-09-22T17:42:37.631Z,101193.66
2022-09-22T17:45:07.332Z,101189.16
2022-09-22T17:47:52.719Z,101193.59
2022-09-22T17:50:37.884Z,101197.06
2022-09-22T17:53:27.581Z,101194.31
2022-09-22T17:55:54.061Z,101196.94
2022-09-22T17:58:20.589Z,101192.41
2022-09-22T18:00:47.627Z,101186.13
2022-09-22T18:03:14.141Z,101188.75
2022-09-22T18:05:41.191Z,101184.22
2022-09-22T18:08:07.784Z,101185.06
2022-09-22T18:10:34.426Z,101185.00
2022-09-22T18:13:02.416Z,101183.19
2022-09-22T18:15:29.365Z,101187.53
2022-09-22T18:17:57.926Z,101190.13
2022-09-22T18:20:26.225Z,101196.22
2022-09-22T18:22:54.158Z,101192.63
2022-09-22T18:25:23.521Z,101193.47
2022-09-22T18:27:50.252Z,101198.72
2022-09-22T18:30:19.092Z,101188.03
2022-09-22T18:32:46.894Z,101187.97
2022-09-22T18:35:13.759Z,101189.69
2022-09-22T18:37:40.691Z,101188.72
2022-09-22T18:40:08.935Z,101189.56
2022-09-22T18:42:36.731Z,101185.97
2022-09-22T18:45:03.952Z,101190.34
2022-09-22T18:47:30.433Z,101194.72
2022-09-22T18:49:57.023Z,101191.06
2022-09-22T18:52:24.432Z,101199.88
2022-09-22T18:54:54.068Z,101194.50
2022-09-22T18:57:22.891Z,101196.22
2022-09-22T18:59:51.360Z,101202.38
2022-09-22T19:02:22.146Z,101193.41
2022-09-22T19:04:51.152Z,101188.94
2022-09-22T19:07:41.120Z,101201.22
2022-09-22T19:10:20.488Z,101194.94
2022-09-22T19:12:47.526Z,101197.53
2022-09-22T19:15:18.058Z,101201.03
2022-09-22T19:17:47.305Z,101200.94
2022-09-22T19:20:18.691Z,101200.88
2022-09-22T19:22:46.823Z,101200.81
2022-09-22T19:25:13.612Z,101198.97
2022-09-22T19:27:40.450Z,101197.13
2022-09-22T19:30:09.489Z,101190.88
2022-09-22T19:32:36.493Z,101190.81
2022-09-22T19:35:04.169Z,101186.31
2022-09-22T19:37:30.783Z,101193.31
2022-09-22T19:39:57.373Z,101191.50
2022-09-22T19:42:24.384Z,101189.66
2022-09-22T19:44:50.984Z,101184.22
2022-09-22T19:47:17.492Z,101188.59
2022-09-22T19:49:43.971Z,101191.19
2022-09-22T19:52:12.571Z,101187.53
2022-09-22T19:54:39.272Z,101193.66
2022-09-22T19:57:05.776Z,101194.47
2022-09-22T19:59:32.387Z,101189.06
2022-09-22T20:01:59.060Z,101188.09
2022-09-22T20:04:25.883Z,101195.06
2022-09-22T20:06:52.507Z,101193.25
2022-09-22T20:09:19.055Z,101189.63
2022-09-22T20:11:48.282Z,101195.75
2022-09-22T20:14:22.560Z,101186.84
2022-09-22T20:17:04.994Z,101187.63
2022-09-22T20:19:34.258Z,101183.09
2022-09-22T20:22:17.799Z,101186.56
2022-09-22T20:24:54.767Z,101188.22
2022-09-22T20:27:26.739Z,101181.13
2022-09-22T20:29:56.963Z,101180.19
2022-09-22T20:32:28.285Z,101181.00
2022-09-22T20:34:55.653Z,101168.56
2022-09-22T20:37:23.233Z,101175.63
2022-09-22T20:39:50.119Z,101172.91
2022-09-22T20:42:17.497Z,101168.44
2022-09-22T20:44:44.081Z,101179.88
2022-09-22T20:47:23.124Z,101174.53
2022-09-22T20:49:51.889Z,101168.28
2022-09-22T20:52:20.035Z,101175.28
2022-09-22T20:54:47.556Z,101183.16
2022-09-22T20:57:14.490Z,101177.78
2022-09-22T20:59:45.371Z,101168.91
2022-09-22T21:02:12.661Z,101170.56
2022-09-22T21:04:39.225Z,101174.03
2022-09-22T21:07:06.126Z,101168.66
2022-09-22T21:09:51.137Z,101164.19
2022-09-22T21:12:17.724Z,101168.56
2022-09-22T21:14:45.736Z,101164.06
2022-09-22T21:17:13.771Z,101165.81
2022-09-22T21:19:40.804Z,101162.22
2022-09-22T21:22:07.538Z,101168.34
2022-09-22T21:24:34.146Z,101163.88
2022-09-22T21:27:00.686Z,101162.91
2022-09-22T21:29:28.894Z,101167.25
2022-09-22T21:31:56.693Z,101161.00
2022-09-22T21:34:24.004Z,101156.56
2022-09-22T21:36:50.867Z,101159.09
2022-09-22T21:39:17.412Z,101153.75
2022-09-22T21:41:43.869Z,101151.06
2022-09-22T21:44:10.472Z,101147.47
2022-09-22T21:46:42.085Z,101154.44
2022-09-22T21:49:10.156Z,101154.38
2022-09-22T21:51:41.345Z,101146.34
2022-09-22T21:54:12.784Z,101149.81
2022-09-22T21:56:39.446Z,101145.38
2022-09-22T21:59:05.941Z,101139.97
2022-09-22T22:01:37.166Z,101139.94
2022-09-22T22:04:07.786Z,101145.16
2022-09-22T22:06:40.814Z,101151.25
2022-09-22T22:09:19.315Z,101149.38
2022-09-22T22:11:55.381Z,101144.94
2022-09-22T22:14:24.033Z,101139.56
2022-09-22T22:16:52.971Z,101140.41
2022-09-22T22:19:25.814Z,101140.28
2022-09-22T22:21:53.473Z,101144.59
2022-09-22T22:24:28.783Z,101146.31
2022-09-22T22:27:06.221Z,101139.16
2022-09-22T22:29:36.969Z,101130.28
2022-09-22T22:32:05.414Z,101129.34
2022-09-22T22:34:32.406Z,101131.88
2022-09-22T22:36:59.121Z,101131.81
2022-09-22T22:39:25.707Z,101136.16
2022-09-22T22:41:54.475Z,101132.59
2022-09-22T22:44:21.657Z,101123.69
2022-09-22T22:46:48.279Z,101126.31
2022-09-22T22:49:14.970Z,101128.03
2022-09-22T22:51:45.507Z,101121.78
2022-09-22T22:54:12.610Z,101125.22
2022-09-22T22:56:41.983Z,101116.38
2022-09-22T22:59:10.171Z,101123.38
2022-09-22T23:01:37.426Z,101120.63
2022-09-22T23:04:06.773Z,101125.06
2022-09-22T23:06:43.957Z,101117.94
2022-09-22T23:09:15.972Z,101116.09
2022-09-22T23:11:43.618Z,101116.94
2022-09-22T23:14:12.721Z,101109.81
2022-09-22T23:16:43.130Z,101113.28
2022-09-22T23:19:13.152Z,101107.03
2022-09-22T23:21:40.341Z,101110.50
2022-09-22T23:24:08.184Z,101104.25
2022-09-22T23:26:35.034Z,101108.59
2022-09-22T23:29:03.843Z,101097.97
2022-09-22T23:31:31.600Z,101094.44
2022-09-22T23:33:58.125Z,101097.88
2022-09-22T23:36:27.702Z,101104.91
2022-09-22T23:38:55.864Z,101094.22
2022-09-22T23:41:22.880Z,101096.81
2022-09-22T23:43:52.439Z,101091.47
2022-09-22T23:46:20.920Z,101092.25
2022-09-22T23:48:47.617Z,101089.59
2022-09-22T23:51:14.776Z,101085.09
2022-09-22T23:53:41.697Z,101087.63
2022-09-22T23:56:08.478Z,101084.06
2022-09-22T23:58:35.501Z,101081.38
